Time;durP1;ratioP1;P1;durP2;ratioP2;P2;SDS_P1;SDS_P2;PMS_P1;PMS_P2;Temp;Humidity;BMP_temperature;BMP_pressure;BME280_temperature;BME280_humidity;BME280_pressure;Samples;Min_cycle;Max_cycle;Signal;HPM_P1;HPM_P2
2021/04/01 00:01:48;;;;;;;7.10;5.53;;;;;;;19.27;52.93;102057.31;4999194;28;20391;-73
2021/04/01 00:04:13;;;;;;;5.75;5.22;;;;;;;19.22;52.88;102038.00;5020693;28;20037;-74
2021/04/01 00:06:39;;;;;;;6.85;5.68;;;;;;;19.27;52.91;102049.44;4982160;28;20033;-74
2021/04/01 00:09:05;;;;;;;6.55;5.82;;;;;;;19.26;52.80;102044.19;5018645;28;20029;-74
2021/04/01 00:11:31;;;;;;;6.40;5.25;;;;;;;19.21;53.24;102040.66;5002401;28;20479;-74
2021/04/01 00:13:57;;;;;;;6.50;5.70;;;;;;;19.25;52.70;102047.66;5016711;28;20038;-74
2021/04/01 00:16:22;;;;;;;7.13;6.00;;;;;;;19.25;52.90;102050.28;5018757;28;20128;-74
2021/04/01 00:18:48;;;;;;;7.70;5.82;;;;;;;19.16;52.80;102039.72;5016143;28;20443;-73
2021/04/01 00:21:14;;;;;;;7.70;6.55;;;;;;;19.25;52.93;102040.69;5009130;28;20494;-73
2021/04/01 00:23:39;;;;;;;7.63;6.32;;;;;;;19.22;52.76;102040.63;5025335;28;20025;-74
2021/04/01 00:26:05;;;;;;;6.93;6.13;;;;;;;19.20;52.90;102039.78;5018950;28;20541;-74
2021/04/01 00:28:30;;;;;;;8.82;7.00;;;;;;;19.25;53.07;102052.91;5033693;28;20075;-73
2021/04/01 00:30:55;;;;;;;7.38;6.45;;;;;;;19.16;52.86;102030.09;5014028;28;20034;-73
2021/04/01 00:33:21;;;;;;;6.75;5.75;;;;;;;19.21;52.90;102046.75;5002270;28;20026;-74
2021/04/01 00:35:46;;;;;;;8.23;6.50;;;;;;;19.25;53.02;102048.53;4982457;28;20034;-73
2021/04/01 00:38:12;;;;;;;7.22;5.95;;;;;;;19.22;52.94;102058.13;4991983;28;20033;-73
2021/04/01 00:40:37;;;;;;;7.30;6.15;;;;;;;19.22;52.89;102055.50;5006790;28;20060;-73
2021/04/01 00:43:03;;;;;;;6.32;5.63;;;;;;;19.25;52.88;102053.78;4990708;28;20522;-72
2021/04/01 00:45:28;;;;;;;6.95;5.70;;;;;;;19.14;52.71;102033.56;5036533;28;20025;-73
2021/04/01 00:47:54;;;;;;;7.80;5.82;;;;;;;19.25;52.85;102052.91;4985251;28;20475;-73
2021/04/01 00:50:24;;;;;;;7.18;6.13;;;;;;;19.22;52.82;102052.88;5017455;28;20026;-73
2021/04/01 00:52:50;;;;;;;6.82;5.55;;;;;;;19.24;52.79;102078.25;5036078;28;20041;-73
2021/04/01 00:55:15;;;;;;;7.30;6.60;;;;;;;19.21;52.89;102070.34;5031582;28;20053;-73
2021/04/01 00:57:44;;;;;;;9.63;6.50;;;;;;;19.24;52.84;102072.13;5028330;28;20025;-73
2021/04/01 01:00:13;;;;;;;5.88;4.97;;;;;;;19.24;52.86;102074.75;5001193;28;20044;-73
2021/04/01 01:02:39;;;;;;;7.35;5.90;;;;;;;19.20;52.66;102058.13;5035375;28;20055;-73
2021/04/01 01:05:06;;;;;;;7.03;5.82;;;;;;;19.21;52.77;102059.84;5035139;28;20029;-73
2021/04/01 01:07:33;;;;;;;6.28;5.68;;;;;;;19.24;52.56;102072.13;5034327;28;20017;-73
2021/04/01 01:09:58;;;;;;;8.15;6.10;;;;;;;19.22;52.78;102072.09;5017631;28;20044;-73
2021/04/01 01:12:24;;;;;;;7.57;6.32;;;;;;;19.20;52.90;102067.72;5033349;28;20041;-73
2021/04/01 01:14:49;;;;;;;8.40;6.57;;;;;;;19.22;52.87;102061.63;4995162;28;20475;-73
2021/04/01 01:17:16;;;;;;;8.52;7.18;;;;;;;19.23;52.76;102067.75;4991985;28;20025;-72
2021/04/01 01:19:50;;;;;;;8.63;6.68;;;;;;;19.21;52.72;102070.34;5022186;28;20037;-74
2021/04/01 01:22:18;;;;;;;6.93;6.22;;;;;;;19.16;52.82;102047.56;5029482;28;20036;-74
2021/04/01 01:24:44;;;;;;;8.10;6.10;;;;;;;19.22;52.76;102055.50;5000612;28;20033;-74
2021/04/01 01:27:10;;;;;;;6.93;6.22;;;;;;;19.16;52.86;102058.94;5016476;28;20017;-73
2021/04/01 01:29:36;;;;;;;6.60;5.90;;;;;;;19.16;52.80;102061.56;5028490;28;20018;-73
2021/04/01 01:32:02;;;;;;;7.28;6.00;;;;;;;19.19;52.78;102055.47;4985085;28;20559;-74
2021/04/01 01:34:28;;;;;;;7.80;7.00;;;;;;;19.19;52.59;102068.59;5018922;28;20390;-73
2021/04/01 01:36:53;;;;;;;8.80;7.65;;;;;;;19.15;52.73;102048.44;5011525;28;20022;-75
2021/04/01 01:39:18;;;;;;;7.93;6.15;;;;;;;19.20;52.65;102072.97;5002204;28;20030;-73
2021/04/01 01:41:44;;;;;;;7.13;6.20;;;;;;;19.17;52.67;102065.06;5001904;28;20056;-74
2021/04/01 01:44:09;;;;;;;8.32;6.38;;;;;;;19.15;52.75;102049.31;4982975;28;20025;-73
2021/04/01 01:46:35;;;;;;;7.88;6.47;;;;;;;19.15;52.77;102057.19;4981019;28;20089;-73
2021/04/01 01:49:00;;;;;;;7.43;6.50;;;;;;;19.16;52.63;102060.69;5023217;28;20085;-73
2021/04/01 01:51:29;;;;;;;8.48;6.20;;;;;;;19.11;52.78;102050.13;5040330;28;20470;-73
2021/04/01 01:53:55;;;;;;;8.00;6.40;;;;;;;19.11;52.76;102057.13;5014747;28;20050;-74
2021/04/01 01:56:24;;;;;;;8.88;6.70;;;;;;;19.13;52.83;102072.00;5024570;28;20164;-73
2021/04/01 01:58:51;;;;;;;7.55;6.07;;;;;;;19.06;52.73;102045.72;5032550;28;20036;-73
2021/04/01 02:01:19;;;;;;;9.45;7.25;;;;;;;19.16;52.58;102073.78;5026733;28;20471;-73
2021/04/01 02:03:45;;;;;;;8.77;7.25;;;;;;;19.11;52.86;102062.34;4981311;28;20022;-73
2021/04/01 02:06:12;;;;;;;9.32;7.68;;;;;;;19.14;52.60;102078.13;5011455;28;20061;-72
2021/04/01 02:08:38;;;;;;;9.93;7.57;;;;;;;19.11;52.81;102062.34;5013567;28;20071;-74
2021/04/01 02:11:03;;;;;;;9.38;7.25;;;;;;;19.13;52.63;102072.00;5029943;28;20026;-73
2021/04/01 02:13:29;;;;;;;8.40;6.95;;;;;;;19.09;52.60;102059.72;4988322;28;20018;-74
2021/04/01 02:15:55;;;;;;;7.78;6.97;;;;;;;19.16;52.68;102064.19;5020700;28;20049;-73
2021/04/01 02:18:26;;;;;;;7.40;6.35;;;;;;;19.06;52.58;102053.56;5026834;28;20036;-73
2021/04/01 02:20:54;;;;;;;7.85;6.75;;;;;;;19.12;52.77;102065.00;5011689;28;20116;-73
2021/04/01 02:23:31;;;;;;;7.22;6.53;;;;;;;19.11;52.65;102070.22;5030729;28;20428;-75
2021/04/01 02:25:57;;;;;;;7.55;6.10;;;;;;;19.08;52.91;102071.09;5035173;28;20029;-74
2021/04/01 02:28:26;;;;;;;7.90;6.60;;;;;;;19.15;52.67;102077.28;5019460;28;20029;-75
2021/04/01 02:30:54;;;;;;;8.65;6.45;;;;;;;19.03;52.97;102058.78;5035677;28;20121;-73
2021/04/01 02:33:21;;;;;;;7.65;6.82;;;;;;;18.94;52.78;102037.72;5013618;28;20032;-72
2021/04/01 02:35:47;;;;;;;7.95;6.88;;;;;;;19.11;52.79;102070.22;5035469;28;20037;-73
2021/04/01 02:38:12;;;;;;;7.78;6.40;;;;;;;19.08;52.68;102060.59;5018967;28;20032;-73
2021/04/01 02:40:38;;;;;;;8.50;6.10;;;;;;;19.10;52.72;102061.47;4977990;28;20173;-73
2021/04/01 02:43:05;;;;;;;7.85;6.68;;;;;;;19.13;52.75;102073.75;5019649;28;20419;-74
2021/04/01 02:45:30;;;;;;;8.73;7.68;;;;;;;19.09;52.60;102075.44;5019490;28;20375;-73
2021/04/01 02:47:55;;;;;;;8.60;7.10;;;;;;;19.08;52.84;102065.84;5036989;28;20029;-74
2021/04/01 02:50:22;;;;;;;11.13;7.53;;;;;;;19.10;52.75;102069.34;5018619;28;20091;-75
2021/04/01 02:52:48;;;;;;;8.40;6.53;;;;;;;19.03;52.55;102053.53;5039355;28;20132;-72
2021/04/01 02:55:14;;;;;;;8.52;7.10;;;;;;;19.08;53.01;102057.09;5037319;28;20063;-73
2021/04/01 02:57:39;;;;;;;10.38;8.07;;;;;;;19.06;52.47;102049.22;5020817;28;20029;-73
2021/04/01 03:00:10;;;;;;;10.73;8.18;;;;;;;19.09;52.80;102058.84;4990507;28;20384;-73
2021/04/01 03:02:37;;;;;;;7.95;7.03;;;;;;;19.07;53.13;102056.22;5018609;28;20021;-73
2021/04/01 03:05:06;;;;;;;10.32;7.60;;;;;;;19.07;53.14;102055.34;5000463;28;20033;-73
2021/04/01 03:07:31;;;;;;;8.43;7.25;;;;;;;19.06;52.88;102059.69;5012505;28;20022;-73
2021/04/01 03:09:57;;;;;;;8.07;7.00;;;;;;;18.92;52.75;102035.06;4999990;28;20025;-74
2021/04/01 03:12:22;;;;;;;8.20;6.93;;;;;;;19.09;52.67;102066.69;5019466;28;20029;-73
2021/04/01 03:14:47;;;;;;;9.48;7.82;;;;;;;19.10;52.63;102066.72;5001514;28;20044;-75
2021/04/01 03:17:13;;;;;;;7.70;6.55;;;;;;;19.00;52.65;102045.63;5002622;28;20083;-74
2021/04/01 03:19:38;;;;;;;10.65;8.07;;;;;;;19.05;52.74;102060.56;5001643;28;20052;-74
2021/04/01 03:22:04;;;;;;;8.75;6.82;;;;;;;19.04;52.77;102065.78;4992332;28;20030;-74
2021/04/01 03:24:29;;;;;;;8.68;7.07;;;;;;;19.09;52.79;102077.19;4987453;28;20026;-73
2021/04/01 03:26:54;;;;;;;9.30;7.50;;;;;;;19.04;52.77;102073.66;4992896;28;20430;-73
2021/04/01 03:29:20;;;;;;;9.38;8.35;;;;;;;19.07;52.80;102085.06;5010945;28;20033;-76
2021/04/01 03:31:45;;;;;;;10.88;8.15;;;;;;;19.06;52.68;102075.44;5035207;28;20376;-74
2021/04/01 03:34:11;;;;;;;10.35;8.38;;;;;;;19.07;52.72;102074.56;5028964;28;20030;-73
2021/04/01 03:36:36;;;;;;;8.35;6.70;;;;;;;19.01;52.79;102060.50;5019966;28;20076;-74
2021/04/01 03:39:03;;;;;;;9.45;7.25;;;;;;;19.01;52.83;102066.63;5017885;28;20458;-74
2021/04/01 03:41:29;;;;;;;10.27;8.60;;;;;;;19.02;52.89;102072.75;5024209;28;20112;-73
2021/04/01 03:43:54;;;;;;;8.25;7.40;;;;;;;19.06;52.94;102071.94;5016217;28;20060;-73
2021/04/01 03:46:20;;;;;;;10.60;8.52;;;;;;;19.04;52.83;102073.66;5039924;28;20022;-73
2021/04/01 03:48:45;;;;;;;8.45;7.55;;;;;;;19.04;52.91;102081.50;5017987;28;20056;-77
2021/04/01 03:51:11;;;;;;;9.82;7.38;;;;;;;19.04;52.79;102082.41;5018367;28;20033;-74
2021/04/01 03:53:36;;;;;;;9.40;7.80;;;;;;;19.02;52.89;102073.63;5020895;28;20045;-74
2021/04/01 03:56:02;;;;;;;9.88;8.00;;;;;;;18.96;52.81;102081.41;5004432;28;20482;-73
2021/04/01 04:11:10;;;;;;;11.07;8.45;;;;;;;18.92;52.83;102075.25;5012370;28;20028;-72
2021/04/01 04:16:24;;;;;;;10.05;8.95;;;;;;;18.99;52.96;102099.78;4996771;28;19921;-73
2021/04/01 04:18:50;;;;;;;9.43;8.40;;;;;;;19.01;52.89;102099.81;5055460;28;20033;-74
2021/04/01 04:21:16;;;;;;;9.50;8.38;;;;;;;19.02;52.70;102098.97;5003478;28;20033;-75
2021/04/01 04:23:46;;;;;;;11.00;8.45;;;;;;;19.00;52.82;102100.69;5035773;28;20044;-73
2021/04/01 04:26:12;;;;;;;9.73;8.73;;;;;;;18.97;52.81;102100.63;5002426;28;20025;-74
2021/04/01 04:28:38;;;;;;;11.50;8.70;;;;;;;18.98;52.85;102102.41;5033426;28;20056;-73
2021/04/01 04:31:04;;;;;;;9.63;8.23;;;;;;;19.01;53.02;102102.44;5031920;28;20119;-81
2021/04/01 04:33:30;;;;;;;12.18;8.20;;;;;;;19.00;53.06;102106.81;5052455;28;20042;-72
2021/04/01 04:35:57;;;;;;;10.85;8.10;;;;;;;18.97;53.08;102100.63;5033651;28;20474;-73
2021/04/01 04:38:23;;;;;;;9.43;8.23;;;;;;;19.05;53.07;102114.75;5018239;28;20036;-74
2021/04/01 04:40:50;;;;;;;11.48;9.45;;;;;;;19.01;53.09;102110.31;5034677;28;20024;-73
2021/04/01 04:43:16;;;;;;;10.50;9.20;;;;;;;19.04;53.00;102126.97;5021248;28;20029;-73
2021/04/01 04:45:41;;;;;;;10.13;8.38;;;;;;;19.04;52.96;102121.72;5025431;28;20398;-76
2021/04/01 04:48:07;;;;;;;9.48;8.52;;;;;;;19.05;53.03;102130.47;5025097;28;20017;-74
2021/04/01 04:50:32;;;;;;;10.43;7.63;;;;;;;19.05;53.10;102139.22;5036438;28;20059;-75
2021/04/01 04:52:58;;;;;;;8.90;8.00;;;;;;;19.03;52.77;102130.44;5030903;28;20049;-73
2021/04/01 04:55:25;;;;;;;8.45;7.63;;;;;;;19.05;53.08;102136.59;5018384;28;20030;-73
2021/04/01 04:58:07;;;;;;;10.90;8.27;;;;;;;19.02;53.05;102133.94;5030462;28;20044;-73
2021/04/01 05:01:01;;;;;;;9.82;8.10;;;;;;;18.98;53.31;102126.00;5015439;28;20475;-75
2021/04/01 05:06:11;;;;;;;11.02;9.68;;;;;;;19.00;53.18;102140.00;5020521;28;20126;-74
2021/04/01 05:08:37;;;;;;;10.00;9.00;;;;;;;19.03;53.23;102146.19;4995974;28;20387;-73
2021/04/01 05:11:02;;;;;;;16.08;9.77;;;;;;;18.94;53.46;102146.06;5013286;28;20041;-72
2021/04/01 05:13:28;;;;;;;12.98;10.10;;;;;;;18.98;53.54;102153.09;5041309;28;20115;-73
2021/04/01 05:15:53;;;;;;;13.38;10.60;;;;;;;18.97;53.48;102146.06;4999980;28;20045;-77
2021/04/01 05:18:38;;;;;;;14.02;9.90;;;;;;;18.98;53.50;102142.59;5035720;28;20029;-74
2021/04/01 05:21:05;;;;;;;14.75;11.73;;;;;;;19.09;53.58;102164.59;5021743;28;20030;-70
2021/04/01 05:28:45;;;;;;;16.38;11.40;;;;;;;19.31;52.94;102163.16;4992012;28;20041;-72
2021/04/01 05:31:12;;;;;;;12.48;10.25;;;;;;;19.35;52.83;102162.31;5019337;28;20041;-75
2021/04/01 05:33:41;;;;;;;14.63;11.30;;;;;;;19.46;52.76;102178.19;4980528;28;20121;-72
2021/04/01 05:36:09;;;;;;;15.68;10.70;;;;;;;19.52;52.85;102179.19;4996669;28;20168;-72
2021/04/01 05:38:35;;;;;;;15.68;11.10;;;;;;;19.44;52.69;102166.81;5005562;28;20098;-74
2021/04/01 05:41:01;;;;;;;13.75;10.85;;;;;;;19.48;52.66;102179.06;5018991;28;20087;-74
2021/04/01 05:43:29;;;;;;;15.13;10.13;;;;;;;19.62;52.56;102190.66;5017490;28;20052;-74
2021/04/01 05:46:13;;;;;;;15.88;11.32;;;;;;;19.61;52.62;102188.88;5020087;28;20472;-74
2021/04/01 05:48:52;;;;;;;14.13;10.52;;;;;;;19.54;52.61;102197.56;5018529;28;20490;-73
2021/04/01 05:57:23;;;;;;;16.40;11.15;;;;;;;19.73;52.74;102222.31;4953363;29;20452;-74
2021/04/01 06:02:48;;;;;;;12.57;10.15;;;;;;;19.77;52.39;102210.94;5034512;28;20032;-72
2021/04/01 06:05:20;;;;;;;13.95;11.32;;;;;;;19.80;52.58;102209.25;5027398;28;20025;-78
2021/04/01 06:07:46;;;;;;;13.07;9.83;;;;;;;19.75;52.49;102212.66;5027956;28;20483;-76
2021/04/01 06:10:18;;;;;;;14.38;9.30;;;;;;;19.69;52.64;102202.13;4989065;28;20283;-72
2021/04/01 06:12:43;;;;;;;12.30;9.38;;;;;;;19.80;52.64;102209.25;5028094;28;20116;-73
2021/04/01 06:15:12;;;;;;;11.43;9.65;;;;;;;19.84;52.34;102207.56;5018498;28;20510;-73
2021/04/01 06:17:46;;;;;;;12.25;9.85;;;;;;;19.78;52.52;102221.47;5012445;28;20029;-74
2021/04/01 06:20:11;;;;;;;10.68;9.35;;;;;;;19.76;52.39;102235.44;5016047;28;20025;-73
2021/04/01 06:22:40;;;;;;;12.60;8.98;;;;;;;19.70;52.42;102241.50;5004592;28;20026;-72
2021/04/01 06:25:14;;;;;;;13.90;9.05;;;;;;;19.62;52.61;102237.88;5037606;28;20037;-74
2021/04/01 06:27:49;;;;;;;13.15;9.60;;;;;;;19.61;52.55;102254.50;5017358;28;20468;-74
2021/04/01 06:30:35;;;;;;;11.90;8.15;;;;;;;19.63;52.71;102261.53;5019705;28;20108;-74
2021/04/01 06:33:11;;;;;;;10.02;8.63;;;;;;;19.55;52.85;102257.06;5020316;28;20025;-73
2021/04/01 06:35:47;;;;;;;10.95;8.80;;;;;;;19.56;52.75;102269.31;5037000;28;20030;-73
2021/04/01 06:40:43;;;;;;;12.15;9.98;;;;;;;19.55;53.00;102278.94;5019488;28;20040;-74
2021/04/01 06:43:24;;;;;;;10.82;9.00;;;;;;;19.53;52.86;102283.28;5021798;28;20040;-75
2021/04/01 06:45:57;;;;;;;13.50;10.60;;;;;;;19.51;52.91;102292.84;5012201;28;20438;-74
2021/04/01 06:48:27;;;;;;;10.98;9.27;;;;;;;19.47;52.93;102288.41;5021051;28;20038;-73
2021/04/01 06:51:13;;;;;;;8.82;7.95;;;;;;;19.44;52.81;102296.25;5020156;28;20484;-73
2021/04/01 06:53:57;;;;;;;10.18;8.43;;;;;;;19.47;52.93;102313.78;4987897;28;20054;-73
2021/04/01 07:01:51;;;;;;;10.85;9.68;;;;;;;19.42;52.83;102307.56;5022886;28;20026;-73
2021/04/01 07:04:18;;;;;;;9.90;8.90;;;;;;;19.47;52.85;102327.78;5034810;28;20022;-73
2021/04/01 07:06:49;;;;;;;10.25;9.18;;;;;;;19.47;52.91;102325.16;5039099;28;20028;-73
2021/04/01 07:09:35;;;;;;;11.40;9.00;;;;;;;19.52;52.81;102330.47;5000733;28;20036;-72
2021/04/01 07:12:16;;;;;;;10.35;8.60;;;;;;;19.51;52.81;102324.34;5023265;28;20518;-74
2021/04/01 07:14:43;;;;;;;10.00;9.00;;;;;;;19.49;52.66;102328.69;5024318;28;20059;-75
2021/04/01 07:17:21;;;;;;;10.18;8.82;;;;;;;19.48;52.65;102326.00;5001982;28;20036;-74
2021/04/01 07:47:41;;;;;;;8.05;6.90;;;;;;;19.65;52.44;102357.78;5036842;28;20117;-74
2021/04/01 07:50:22;;;;;;;6.72;5.97;;;;;;;19.62;52.37;102353.34;5034727;28;20029;-74
2021/04/01 07:52:59;;;;;;;11.45;7.95;;;;;;;19.62;52.35;102345.47;5017682;28;20041;-73
2021/04/01 07:55:31;;;;;;;8.13;6.80;;;;;;;19.65;52.09;102352.53;5035667;28;20536;-73
2021/04/01 08:05:26;;;;;;;7.50;6.80;;;;;;;19.70;52.27;102371.84;5037657;28;20499;-73
2021/04/01 08:07:57;;;;;;;7.25;6.55;;;;;;;19.69;52.19;102370.97;5036250;28;20025;-73
2021/04/01 08:10:29;;;;;;;7.78;6.55;;;;;;;19.66;52.21;102368.28;5016961;28;20025;-73
2021/04/01 08:13:07;;;;;;;8.73;6.28;;;;;;;19.69;52.25;102370.09;5016173;28;20025;-74
2021/04/01 08:15:45;;;;;;;6.90;5.88;;;;;;;19.65;52.31;102370.91;5009867;28;20088;-73
2021/04/01 08:18:33;;;;;;;7.50;6.63;;;;;;;19.69;52.07;102380.59;5013957;28;20084;-73
2021/04/01 08:21:01;;;;;;;10.45;6.88;;;;;;;19.72;52.28;102386.78;5025726;28;20036;-73
2021/04/01 08:23:52;;;;;;;7.78;6.90;;;;;;;19.69;51.72;102381.47;5030762;28;20024;-74
2021/04/01 08:26:39;;;;;;;7.43;5.93;;;;;;;19.71;52.13;102394.63;5015403;28;20387;-72
2021/04/01 08:32:00;;;;;;;8.38;5.95;;;;;;;19.67;52.07;102385.81;5028204;28;20483;-73
2021/04/01 08:36:53;;;;;;;5.97;5.40;;;;;;;19.74;52.11;102406.03;5001078;28;20467;-73
2021/04/01 08:39:21;;;;;;;5.55;4.97;;;;;;;19.71;52.26;102400.75;5017687;28;20037;-73
2021/04/01 08:41:53;;;;;;;6.50;5.32;;;;;;;19.69;51.85;102405.09;5042520;28;20047;-78
2021/04/01 08:44:35;;;;;;;5.95;5.28;;;;;;;19.73;51.97;102406.03;5038504;28;20045;-73
2021/04/01 08:47:35;;;;;;;7.45;6.05;;;;;;;19.73;52.15;102411.28;5037317;28;20048;-72
2021/04/01 08:50:29;;;;;;;8.30;5.55;;;;;;;19.73;51.92;102411.28;5034694;28;20056;-73
2021/04/01 08:53:15;;;;;;;5.53;4.75;;;;;;;19.72;51.97;102409.50;5022774;28;20041;-73
2021/04/01 08:55:54;;;;;;;7.68;5.22;;;;;;;19.72;51.82;102414.75;5031563;28;20025;-74
2021/04/01 08:58:23;;;;;;;5.75;5.18;;;;;;;19.73;51.84;102412.16;5041315;28;20033;-74
2021/04/01 09:00:58;;;;;;;5.00;4.22;;;;;;;19.69;51.86;102412.97;5035555;28;20036;-73
2021/04/01 09:03:36;;;;;;;6.22;4.20;;;;;;;19.72;51.91;102413.03;5026949;28;20375;-73
2021/04/01 09:06:04;;;;;;;5.95;5.00;;;;;;;19.73;52.02;102425.28;5018973;28;20037;-73
2021/04/01 09:08:34;;;;;;;6.00;4.70;;;;;;;19.73;52.00;102414.78;5050004;28;20106;-74
2021/04/01 09:11:01;;;;;;;7.15;4.70;;;;;;;19.66;51.95;102412.91;5046500;28;20037;-74
2021/04/01 09:13:34;;;;;;;5.10;4.60;;;;;;;19.72;52.00;102417.38;5047263;28;20032;-73
2021/04/01 09:18:33;;;;;;;6.32;4.55;;;;;;;19.74;51.74;102431.38;5037060;28;20122;-74
2021/04/01 09:21:04;;;;;;;5.78;4.35;;;;;;;19.71;51.87;102431.38;5024980;28;20475;-84
2021/04/01 09:23:37;;;;;;;5.90;5.30;;;;;;;19.73;51.69;102434.91;5039667;28;20029;-74
2021/04/01 09:26:03;;;;;;;;;;;;;;;19.76;51.73;102442.78;5055364;28;20032;-74
2021/04/01 09:28:31;;;;;;;4.32;3.85;;;;;;;19.72;51.62;102434.03;5021479;28;19972;-73
2021/04/01 09:31:00;;;;;;;5.28;4.20;;;;;;;19.72;51.81;102436.66;5037027;28;20060;-73
2021/04/01 09:33:29;;;;;;;5.68;4.35;;;;;;;19.74;51.81;102441.88;5053544;28;20021;-73
2021/04/01 09:36:11;;;;;;;4.63;4.10;;;;;;;19.73;51.81;102443.66;5036725;28;20068;-73
2021/04/01 09:38:43;;;;;;;5.55;3.80;;;;;;;19.69;51.77;102435.69;5057922;28;20482;-74
2021/04/01 09:41:09;;;;;;;5.20;3.75;;;;;;;19.70;51.73;102432.22;5051271;28;20041;-74
2021/04/01 09:43:35;;;;;;;6.38;4.40;;;;;;;19.71;51.63;102441.88;5024008;28;20039;-74
2021/04/01 09:46:12;;;;;;;4.97;3.72;;;;;;;19.71;51.78;102449.75;5020370;28;20025;-72
2021/04/01 09:48:42;;;;;;;5.53;3.67;;;;;;;19.65;51.70;102439.13;5044342;28;20020;-74
2021/04/01 09:51:34;;;;;;;4.38;3.88;;;;;;;19.70;51.58;102443.59;5059989;28;20031;-73
2021/04/01 09:54:00;;;;;;;7.22;3.60;;;;;;;19.60;51.73;102437.31;5057117;28;20057;-72
2021/04/01 09:56:31;;;;;;;4.43;3.40;;;;;;;19.70;51.70;102455.84;5025493;28;20032;-73
2021/04/01 09:58:57;;;;;;;4.18;3.53;;;;;;;19.70;51.65;102442.72;5059857;28;20029;-72
2021/04/01 10:01:30;;;;;;;5.20;3.35;;;;;;;19.65;52.03;102445.25;5042360;28;20082;-75
2021/04/01 10:04:19;;;;;;;5.85;3.42;;;;;;;19.69;51.75;102447.09;5060055;28;20036;-73
2021/04/01 10:06:47;;;;;;;5.88;3.63;;;;;;;19.66;51.91;102447.03;5035737;28;20067;-73
2021/04/01 10:09:24;;;;;;;7.85;3.83;;;;;;;19.61;51.63;102438.19;5045788;28;20383;-73
2021/04/01 10:12:04;;;;;;;4.70;3.08;;;;;;;19.67;51.62;102458.41;5053586;28;20031;-73
2021/04/01 10:14:30;;;;;;;6.85;3.40;;;;;;;19.68;51.82;102457.56;5026446;28;20059;-73
2021/04/01 10:16:57;;;;;;;3.75;2.85;;;;;;;19.63;51.78;102460.09;5040361;28;20029;-73
2021/04/01 10:19:30;;;;;;;4.68;3.65;;;;;;;19.57;51.78;102454.78;5060762;28;20103;-74
2021/04/01 10:21:56;;;;;;;3.90;3.05;;;;;;;19.64;51.87;102475.00;5059047;28;20031;-79
2021/04/01 10:24:24;;;;;;;4.53;3.17;;;;;;;19.61;51.77;102460.06;5008715;28;20052;-73
2021/04/01 10:27:02;;;;;;;4.55;2.97;;;;;;;19.63;51.70;102479.34;5026448;28;20029;-83
2021/04/01 10:29:57;;;;;;;3.95;3.13;;;;;;;19.60;51.77;102471.41;5027255;28;20487;-81
2021/04/01 10:32:34;;;;;;;4.22;3.30;;;;;;;19.63;51.80;102476.72;5043213;28;20055;-74
2021/04/01 10:35:06;;;;;;;5.05;3.15;;;;;;;19.59;51.86;102472.31;5053380;28;20048;-73
2021/04/01 10:37:33;;;;;;;4.07;3.22;;;;;;;19.65;51.93;102475.88;5058648;28;20025;-72
2021/04/01 10:40:00;;;;;;;5.00;3.60;;;;;;;19.68;51.83;102486.44;5058503;28;20068;-73
2021/04/01 10:42:32;;;;;;;4.55;3.13;;;;;;;19.69;51.86;102485.56;5053137;28;20088;-73
2021/04/01 10:45:11;;;;;;;3.33;2.75;;;;;;;19.63;51.72;102474.09;5034977;28;20068;-73
2021/04/01 10:47:49;;;;;;;5.43;2.70;;;;;;;19.59;51.81;102468.81;5038290;28;20021;-73
2021/04/01 10:50:14;;;;;;;5.78;3.45;;;;;;;19.64;51.97;102485.47;5054056;28;20067;-74
2021/04/01 10:52:40;;;;;;;5.55;3.63;;;;;;;19.63;51.91;102495.09;5049939;28;20479;-75
2021/04/01 10:55:06;;;;;;;3.50;2.92;;;;;;;19.60;51.98;102484.53;5017416;28;20025;-74
2021/04/01 10:57:33;;;;;;;3.15;2.60;;;;;;;19.70;52.01;102503.09;5001577;28;20033;-74
2021/04/01 11:00:01;;;;;;;3.38;2.47;;;;;;;19.63;52.09;102492.47;5001531;28;20060;-73
2021/04/01 11:02:34;;;;;;;3.65;2.70;;;;;;;19.61;51.77;102491.56;5021497;28;20090;-73
2021/04/01 11:05:19;;;;;;;3.13;2.60;;;;;;;19.67;52.11;102503.03;5024005;28;20379;-75
2021/04/01 11:07:48;;;;;;;3.83;2.90;;;;;;;19.70;51.94;102510.97;5011241;28;20036;-73
2021/04/01 11:10:17;;;;;;;7.00;2.80;;;;;;;19.69;51.88;102511.81;5035416;28;20032;-71
2021/04/01 11:12:46;;;;;;;5.18;3.33;;;;;;;19.68;51.73;102508.31;5009976;28;20030;-73
2021/04/01 11:15:13;;;;;;;4.65;2.83;;;;;;;19.67;52.02;102506.53;5018319;28;20487;-72
2021/04/01 11:17:43;;;;;;;4.40;3.28;;;;;;;19.71;52.08;102518.88;5019124;28;20032;-73
2021/04/01 11:20:10;;;;;;;2.95;2.50;;;;;;;19.68;52.26;102517.91;5019407;28;20029;-74
2021/04/01 11:22:35;;;;;;;4.70;2.63;;;;;;;19.68;52.35;102520.53;4984356;28;20494;-73
2021/04/01 11:25:12;;;;;;;2.75;2.33;;;;;;;19.71;52.29;102554.72;5017591;28;20116;-72
2021/04/01 11:27:50;;;;;;;3.63;2.67;;;;;;;19.70;52.29;102552.97;5018882;28;20025;-72
2021/04/01 11:30:16;;;;;;;3.90;3.10;;;;;;;19.70;52.13;102537.22;5018230;28;20039;-72
2021/04/01 11:32:51;;;;;;;3.10;2.42;;;;;;;19.65;52.20;102524.00;5028491;28;20042;-72
2021/04/01 11:35:18;;;;;;;4.38;2.40;;;;;;;19.61;52.18;102537.91;5016502;28;20036;-71
2021/04/01 11:37:48;;;;;;;3.60;2.35;;;;;;;19.64;52.13;102543.22;5030113;28;20546;-71
2021/04/01 11:40:14;;;;;;;4.88;2.67;;;;;;;19.67;52.34;102542.41;5027932;28;20024;-74
2021/04/01 11:42:51;;;;;;;3.25;2.47;;;;;;;19.59;52.13;102535.28;4987588;28;20034;-72
2021/04/01 11:45:16;;;;;;;6.28;2.88;;;;;;;19.69;51.91;102577.44;5018635;28;20145;-73
2021/04/01 11:47:42;;;;;;;3.75;2.63;;;;;;;19.62;51.99;102535.31;5019684;28;20109;-73
2021/04/01 11:50:08;;;;;;;3.50;2.20;;;;;;;19.66;51.80;102535.38;5003167;28;20095;-73
2021/04/01 11:52:33;;;;;;;4.13;2.85;;;;;;;19.66;51.56;102541.50;5025472;28;20053;-73
2021/04/01 11:55:12;;;;;;;3.42;2.50;;;;;;;19.52;51.51;102515.03;5049006;28;20033;-73
2021/04/01 11:57:43;;;;;;;4.47;2.95;;;;;;;19.59;51.52;102524.78;5060755;28;20024;-82
2021/04/01 12:00:14;;;;;;;3.65;2.58;;;;;;;19.65;51.47;102536.22;5075116;28;20036;-72
2021/04/01 12:02:52;;;;;;;2.30;2.05;;;;;;;19.60;51.40;102539.66;5039491;28;20600;-73
2021/04/01 12:05:18;;;;;;;4.18;2.50;;;;;;;19.63;51.52;102546.69;5026545;28;20056;-72
2021/04/01 12:07:43;;;;;;;6.93;3.47;;;;;;;19.61;51.69;102549.28;5037870;28;20033;-70
2021/04/01 12:10:13;;;;;;;5.32;2.50;;;;;;;19.66;51.44;102551.13;5007721;28;20107;-72
2021/04/01 12:12:39;;;;;;;2.70;2.15;;;;;;;19.60;51.50;102544.91;5045484;28;20029;-74
2021/04/01 12:15:05;;;;;;;2.65;2.00;;;;;;;19.67;51.49;102553.78;5044681;28;20075;-71
2021/04/01 12:17:35;;;;;;;5.65;2.65;;;;;;;19.62;51.65;102550.19;5018630;28;20510;-73
2021/04/01 12:20:04;;;;;;;3.45;2.50;;;;;;;19.67;51.80;102548.53;5026313;28;20078;-73
2021/04/01 12:22:36;;;;;;;3.50;2.08;;;;;;;19.68;51.54;102541.53;5069230;28;20032;-74
2021/04/01 12:25:02;;;;;;;4.60;2.15;;;;;;;19.67;51.47;102542.41;5048780;28;20021;-72
2021/04/01 12:27:31;;;;;;;3.28;1.90;;;;;;;19.65;51.49;102546.72;5019671;28;20025;-73
2021/04/01 12:29:58;;;;;;;4.03;2.40;;;;;;;19.67;51.72;102542.41;5018605;28;20033;-73
2021/04/01 12:32:26;;;;;;;3.88;2.97;;;;;;;19.65;51.69;102545.00;5051653;28;20098;-73
2021/04/01 12:35:01;;;;;;;5.57;2.65;;;;;;;19.71;52.04;102554.72;5015012;28;20025;-73
2021/04/01 12:37:27;;;;;;;5.53;2.33;;;;;;;19.69;51.67;102548.56;5042315;28;20029;-75
2021/04/01 12:39:54;;;;;;;4.43;2.00;;;;;;;19.65;51.85;102549.34;5003969;28;20041;-71
2021/04/01 12:42:21;;;;;;;4.15;2.35;;;;;;;19.71;51.78;102562.59;5036632;28;20033;-73
2021/04/01 12:44:46;;;;;;;2.58;2.22;;;;;;;19.66;51.72;102559.88;5027008;28;20096;-74
2021/04/01 12:47:22;;;;;;;4.88;2.78;;;;;;;19.72;51.69;102567.00;5056065;28;20389;-73
2021/04/01 12:49:48;;;;;;;4.35;2.63;;;;;;;19.69;51.74;102570.44;5038622;28;21998;-73
2021/04/01 12:52:14;;;;;;;5.03;2.35;;;;;;;19.71;51.54;102563.50;5056682;28;20470;-73
2021/04/01 12:54:43;;;;;;;3.47;2.05;;;;;;;19.72;51.56;102574.88;5055588;28;20107;-73
2021/04/01 12:57:17;;;;;;;3.90;2.50;;;;;;;19.69;51.74;102574.81;5018656;28;20044;-73
2021/04/01 12:59:48;;;;;;;3.85;2.50;;;;;;;19.63;51.70;102571.22;5054809;28;20025;-74